createdAt,value
2022-08-18T00:00:54.637Z,3.30
2022-08-18T00:01:54.753Z,3.60
2022-08-18T00:03:00.635Z,3.30
2022-08-18T00:03:56.517Z,3.80
2022-08-18T00:04:55.365Z,3.90
2022-08-18T00:05:54.567Z,3.70
2022-08-18T00:06:54.584Z,3.60
2022-08-18T00:07:54.540Z,3.60
2022-08-18T00:08:54.563Z,3.70
2022-08-18T00:09:54.505Z,3.60
2022-08-18T00:10:54.494Z,3.80
2022-08-18T00:11:54.484Z,3.80
2022-08-18T00:12:57.048Z,3.90
2022-08-18T00:13:54.495Z,3.80
2022-08-18T00:14:54.475Z,4.00
2022-08-18T00:15:54.443Z,4.20
2022-08-18T00:16:54.439Z,4.20
2022-08-18T00:17:54.410Z,3.80
2022-08-18T00:18:54.408Z,3.80
2022-08-18T00:19:54.414Z,3.60
2022-08-18T00:20:54.381Z,4.10
2022-08-18T00:21:54.353Z,4.00
2022-08-18T00:22:54.360Z,4.10
2022-08-18T00:23:54.325Z,3.60
2022-08-18T00:24:54.336Z,3.60
2022-08-18T00:25:55.186Z,3.90
2022-08-18T00:26:54.296Z,4.50
2022-08-18T00:27:54.292Z,4.10
2022-08-18T00:28:54.269Z,4.30
2022-08-18T00:29:54.270Z,4.20
2022-08-18T00:30:54.541Z,3.90
2022-08-18T00:31:54.225Z,4.10
2022-08-18T00:32:54.223Z,4.40
2022-08-18T00:33:54.200Z,3.90
2022-08-18T00:34:54.207Z,4.10
2022-08-18T00:35:54.184Z,4.70
2022-08-18T00:36:54.166Z,3.70
2022-08-18T00:37:54.145Z,4.00
2022-08-18T00:38:54.131Z,4.00
2022-08-18T00:39:54.292Z,4.10
2022-08-18T00:40:54.110Z,4.30
2022-08-18T00:41:54.079Z,4.30
2022-08-18T00:42:54.077Z,3.90
2022-08-18T00:43:54.068Z,4.20
2022-08-18T00:44:54.043Z,3.90
2022-08-18T00:45:54.028Z,4.30
2022-08-18T00:46:54.045Z,4.00
2022-08-18T00:47:54.345Z,4.30
2022-08-18T00:48:54.007Z,4.10
2022-08-18T00:49:53.975Z,4.40
2022-08-18T00:50:53.959Z,3.80
2022-08-18T00:51:53.981Z,4.40
2022-08-18T00:52:53.939Z,4.10
2022-08-18T00:53:53.948Z,4.00
2022-08-18T00:54:53.934Z,4.10
2022-08-18T00:55:54.805Z,4.10
2022-08-18T00:56:53.895Z,4.20
2022-08-18T00:57:54.089Z,4.30
2022-08-18T00:58:53.895Z,4.30
2022-08-18T00:59:53.847Z,4.60
2022-08-18T01:00:53.921Z,4.20
2022-08-18T01:01:53.881Z,4.00
2022-08-18T01:02:53.808Z,4.20
2022-08-18T01:03:53.807Z,4.30
2022-08-18T01:04:53.803Z,3.80
2022-08-18T01:05:53.764Z,3.90
2022-08-18T01:06:53.761Z,4.30
2022-08-18T01:07:54.021Z,4.10
2022-08-18T01:08:53.733Z,4.30
2022-08-18T01:09:53.709Z,4.10
2022-08-18T01:10:53.702Z,4.30
2022-08-18T01:11:53.678Z,4.40
2022-08-18T01:12:53.665Z,3.80
2022-08-18T01:13:53.683Z,4.20
2022-08-18T01:14:53.657Z,4.00
2022-08-18T01:15:53.633Z,4.10
2022-08-18T01:16:57.530Z,4.20
2022-08-18T01:17:53.668Z,3.70
2022-08-18T01:18:53.620Z,4.00
2022-08-18T01:19:53.588Z,4.10
2022-08-18T01:20:53.591Z,4.20
2022-08-18T01:21:53.566Z,4.00
2022-08-18T01:22:53.560Z,4.20
2022-08-18T01:23:53.548Z,3.90
2022-08-18T01:24:53.560Z,4.40
2022-08-18T01:25:53.503Z,4.40
2022-08-18T01:26:53.487Z,3.90
2022-08-18T01:27:53.474Z,4.30
2022-08-18T01:28:53.459Z,4.10
2022-08-18T01:29:53.517Z,4.30
2022-08-18T01:30:53.449Z,4.10
2022-08-18T01:31:54.550Z,4.10
2022-08-18T01:32:53.429Z,4.00
2022-08-18T01:33:53.414Z,4.20
2022-08-18T01:34:53.378Z,4.10
2022-08-18T01:35:54.156Z,4.50
2022-08-18T01:36:53.374Z,4.30
2022-08-18T01:37:53.432Z,4.20
2022-08-18T01:38:53.345Z,4.50
2022-08-18T01:41:23.720Z,4.30
2022-08-18T01:41:32.898Z,4.20
2022-08-18T01:41:53.310Z,3.80
2022-08-18T01:42:53.274Z,4.50
2022-08-18T01:43:53.291Z,4.10
2022-08-18T01:44:53.266Z,4.60
2022-08-18T01:45:54.192Z,4.00
2022-08-18T01:46:53.275Z,4.00
2022-08-18T01:47:53.219Z,4.00
2022-08-18T01:48:54.189Z,4.10
2022-08-18T01:49:53.200Z,4.20
2022-08-18T01:50:53.159Z,4.10
2022-08-18T01:51:53.170Z,4.00
2022-08-18T01:52:53.158Z,4.40
2022-08-18T01:53:53.130Z,4.20
2022-08-18T01:54:53.129Z,4.40
2022-08-18T01:55:53.110Z,4.50
2022-08-18T01:56:53.097Z,4.10
2022-08-18T01:57:53.204Z,4.50
2022-08-18T01:58:53.555Z,4.20
2022-08-18T01:59:53.055Z,4.40
2022-08-18T02:00:53.058Z,4.20
2022-08-18T02:01:53.635Z,4.40
2022-08-18T02:02:58.204Z,4.30
2022-08-18T02:03:53.010Z,4.20
2022-08-18T02:04:52.998Z,3.90
2022-08-18T02:05:52.996Z,4.10
2022-08-18T02:06:52.968Z,4.60
2022-08-18T02:07:53.959Z,4.00
2022-08-18T02:08:53.970Z,4.00
2022-08-18T02:09:52.955Z,4.30
2022-08-18T02:10:52.909Z,4.50
2022-08-18T02:11:55.792Z,4.00
2022-08-18T02:12:52.899Z,4.80
2022-08-18T02:13:52.886Z,4.60
2022-08-18T02:14:52.854Z,4.40
2022-08-18T02:15:52.893Z,4.80
2022-08-18T02:16:52.844Z,4.40
2022-08-18T02:17:53.058Z,4.50
2022-08-18T02:18:52.806Z,4.90
2022-08-18T02:19:52.901Z,4.70
2022-08-18T02:20:52.774Z,4.90
2022-08-18T02:21:52.803Z,4.60
2022-08-18T02:22:52.742Z,4.90
2022-08-18T02:23:53.190Z,4.80
2022-08-18T02:24:52.747Z,4.50
2022-08-18T02:25:52.698Z,4.70
2022-08-18T02:26:52.715Z,5.20
2022-08-18T02:27:52.841Z,4.60
2022-08-18T02:28:52.656Z,4.70
2022-08-18T02:29:52.648Z,4.60
2022-08-18T02:30:52.649Z,4.70
2022-08-18T02:31:52.683Z,4.70
2022-08-18T02:32:52.630Z,4.80
2022-08-18T02:33:52.830Z,4.80
2022-08-18T02:34:52.593Z,4.80
2022-08-18T02:35:52.621Z,4.70
2022-08-18T02:36:52.591Z,5.30
2022-08-18T02:37:54.649Z,4.80
2022-08-18T02:38:56.590Z,5.40
2022-08-18T02:39:52.622Z,5.20
2022-08-18T02:40:52.506Z,4.80
2022-08-18T02:41:52.519Z,5.10
2022-08-18T02:42:52.492Z,5.00
2022-08-18T02:43:52.488Z,4.70
2022-08-18T02:44:52.467Z,5.20
2022-08-18T02:45:52.469Z,4.80
2022-08-18T02:46:52.476Z,5.60
2022-08-18T02:47:52.734Z,4.80
2022-08-18T02:48:52.402Z,5.30
2022-08-18T02:49:52.406Z,5.40
2022-08-18T02:50:52.403Z,4.70
2022-08-18T02:51:52.367Z,4.70
2022-08-18T02:52:52.367Z,4.70
2022-08-18T02:53:52.350Z,4.80
2022-08-18T02:54:52.328Z,5.00
2022-08-18T02:55:52.329Z,5.20
2022-08-18T02:56:52.281Z,4.50
2022-08-18T02:57:52.436Z,4.70
2022-08-18T02:58:52.287Z,5.00
2022-08-18T02:59:52.265Z,4.80
2022-08-18T03:00:52.255Z,5.00
2022-08-18T03:01:52.286Z,4.90
2022-08-18T03:02:52.221Z,4.90
2022-08-18T03:03:52.253Z,4.80
2022-08-18T03:04:52.178Z,5.00
2022-08-18T03:05:52.201Z,4.80
2022-08-18T03:06:52.153Z,4.60
2022-08-18T03:07:52.305Z,4.30
2022-08-18T03:08:52.141Z,4.80
2022-08-18T03:09:52.135Z,4.80
2022-08-18T03:10:52.166Z,4.60
2022-08-18T03:11:52.107Z,4.60
2022-08-18T03:12:52.062Z,4.60
2022-08-18T03:13:52.082Z,5.20
2022-08-18T03:14:52.059Z,4.80
2022-08-18T03:15:56.551Z,5.00
2022-08-18T03:16:54.349Z,4.90
2022-08-18T03:17:52.162Z,4.60
2022-08-18T03:18:52.005Z,4.40
2022-08-18T03:19:52.866Z,4.70
2022-08-18T03:20:51.969Z,4.40
2022-08-18T03:21:51.996Z,4.90
2022-08-18T03:22:51.944Z,5.00
2022-08-18T03:24:01.050Z,4.70
2022-08-18T03:24:51.921Z,4.90
2022-08-18T03:25:51.906Z,4.70
2022-08-18T03:26:51.919Z,4.60
2022-08-18T03:27:52.130Z,4.80
2022-08-18T03:28:51.877Z,4.80
2022-08-18T03:29:51.865Z,4.70
2022-08-18T03:30:51.865Z,4.60
2022-08-18T03:31:51.857Z,4.90
2022-08-18T03:32:51.831Z,5.00
2022-08-18T03:33:51.874Z,5.00
2022-08-18T03:34:51.798Z,5.20
2022-08-18T03:35:51.806Z,5.30
2022-08-18T03:36:51.784Z,5.00
2022-08-18T03:37:51.870Z,4.70
2022-08-18T03:38:53.196Z,5.10
2022-08-18T03:39:51.855Z,4.80
2022-08-18T03:40:51.702Z,5.00
2022-08-18T03:41:58.450Z,5.20
2022-08-18T03:42:51.700Z,4.80
2022-08-18T03:43:51.943Z,4.60
2022-08-18T03:44:51.662Z,5.10
2022-08-18T03:45:51.686Z,4.90
2022-08-18T03:46:51.610Z,4.70
2022-08-18T03:47:51.849Z,5.30
2022-08-18T03:48:51.603Z,5.00
2022-08-18T03:49:51.592Z,5.20
2022-08-18T03:50:52.537Z,5.00
2022-08-18T03:51:51.598Z,5.10
2022-08-18T03:52:51.568Z,4.80
2022-08-18T03:53:51.557Z,4.90
2022-08-18T03:54:51.522Z,5.20
2022-08-18T03:55:51.514Z,5.20
2022-08-18T03:56:51.491Z,4.90
2022-08-18T03:57:51.758Z,5.00
2022-08-18T03:58:51.483Z,4.50
2022-08-18T03:59:51.440Z,4.60
2022-08-18T04:00:51.583Z,5.00
2022-08-18T04:01:51.578Z,5.00
2022-08-18T04:02:51.421Z,4.80
2022-08-18T04:03:51.438Z,4.90
2022-08-18T04:04:51.474Z,4.70
2022-08-18T04:05:51.381Z,5.20
2022-08-18T04:06:51.383Z,5.40
2022-08-18T04:07:51.456Z,5.00
2022-08-18T04:08:51.341Z,5.00
2022-08-18T04:09:51.339Z,4.80
2022-08-18T04:10:51.318Z,4.70
2022-08-18T04:11:51.312Z,4.90
2022-08-18T04:12:51.319Z,5.00
2022-08-18T04:13:51.270Z,4.50
2022-08-18T04:14:51.264Z,4.90
2022-08-18T04:15:51.243Z,5.10
2022-08-18T04:16:51.225Z,4.90
2022-08-18T04:18:03.001Z,4.90
2022-08-18T04:18:51.214Z,5.00
2022-08-18T04:19:51.191Z,4.90
2022-08-18T04:20:56.332Z,5.30
2022-08-18T04:21:51.182Z,5.50
2022-08-18T04:22:51.160Z,5.70
2022-08-18T04:23:51.156Z,5.40
2022-08-18T04:24:51.124Z,5.00
2022-08-18T04:25:51.099Z,5.10
2022-08-18T04:26:51.089Z,5.10
2022-08-18T04:27:51.183Z,5.20
2022-08-18T04:28:51.091Z,5.30
2022-08-18T04:29:51.060Z,5.30
2022-08-18T04:30:51.060Z,5.50
2022-08-18T04:31:51.030Z,5.00
2022-08-18T04:32:51.020Z,5.00
2022-08-18T04:33:50.998Z,5.30
2022-08-18T04:34:51.019Z,5.40
2022-08-18T04:35:50.982Z,5.60
2022-08-18T04:36:50.977Z,5.00
2022-08-18T04:37:51.442Z,5.50
2022-08-18T04:38:50.967Z,5.40
2022-08-18T04:39:50.967Z,5.50
2022-08-18T04:40:50.910Z,5.30
2022-08-18T04:41:51.029Z,5.50
2022-08-18T04:42:50.909Z,5.50
2022-08-18T04:43:50.875Z,5.30
2022-08-18T04:44:50.891Z,5.20
2022-08-18T04:45:50.841Z,5.40
2022-08-18T04:46:50.834Z,5.50
2022-08-18T04:47:51.067Z,5.20
2022-08-18T04:48:50.799Z,5.40
2022-08-18T04:49:50.853Z,5.10
2022-08-18T04:50:50.779Z,5.40
2022-08-18T04:52:36.715Z,5.50
2022-08-18T04:52:50.754Z,5.50
2022-08-18T04:53:50.787Z,5.40
2022-08-18T04:54:50.715Z,5.50
2022-08-18T04:55:50.720Z,5.10
2022-08-18T04:56:50.704Z,5.40
2022-08-18T04:57:50.981Z,5.10
2022-08-18T04:58:50.673Z,5.60
2022-08-18T04:59:50.654Z,5.70
2022-08-18T05:00:50.694Z,5.10
2022-08-18T05:01:50.629Z,4.90
2022-08-18T05:02:50.654Z,5.70
2022-08-18T05:03:50.699Z,4.80
2022-08-18T05:04:50.609Z,5.70
2022-08-18T05:05:50.584Z,5.30
2022-08-18T05:06:50.554Z,5.20
2022-08-18T05:07:50.714Z,5.60
2022-08-18T05:08:50.539Z,5.40
2022-08-18T05:09:50.551Z,5.40
2022-08-18T05:10:50.531Z,5.00
2022-08-18T05:11:50.527Z,5.80
2022-08-18T05:12:50.521Z,5.30
2022-08-18T05:13:50.541Z,5.20
2022-08-18T05:14:50.471Z,5.30
2022-08-18T05:16:09.408Z,5.20
2022-08-18T05:16:50.432Z,5.00
2022-08-18T05:17:51.063Z,5.50
2022-08-18T05:18:50.405Z,5.60
2022-08-18T05:19:50.411Z,5.10
2022-08-18T05:20:51.204Z,5.20
2022-08-18T05:21:50.781Z,5.20
2022-08-18T05:22:50.374Z,6.00
2022-08-18T05:23:50.327Z,5.10
2022-08-18T05:24:50.346Z,5.20
2022-08-18T05:25:50.309Z,5.30
2022-08-18T05:26:50.302Z,5.40
2022-08-18T05:27:50.433Z,5.00
2022-08-18T05:28:51.170Z,5.60
2022-08-18T05:29:51.858Z,5.50
2022-08-18T05:30:50.246Z,5.20
2022-08-18T05:31:50.222Z,5.70
2022-08-18T05:32:50.723Z,5.60
2022-08-18T05:33:50.204Z,5.40
2022-08-18T05:34:50.205Z,6.30
2022-08-18T05:35:50.176Z,5.40
2022-08-18T05:36:50.192Z,5.80
2022-08-18T05:37:50.296Z,5.50
2022-08-18T05:38:50.129Z,5.80
2022-08-18T05:39:50.211Z,5.20
2022-08-18T05:40:50.119Z,5.70
2022-08-18T05:41:50.096Z,5.60
2022-08-18T05:42:50.091Z,6.40
2022-08-18T05:43:51.915Z,5.50
2022-08-18T05:44:50.092Z,6.00
2022-08-18T05:45:50.669Z,6.10
2022-08-18T05:46:50.036Z,5.90
2022-08-18T05:47:50.201Z,5.70
2022-08-18T05:48:50.008Z,5.80
2022-08-18T05:49:50.001Z,6.10
2022-08-18T05:50:49.962Z,5.60
2022-08-18T05:51:49.964Z,6.30
2022-08-18T05:52:49.972Z,6.00
2022-08-18T05:53:49.936Z,5.90
2022-08-18T05:54:49.914Z,5.40
2022-08-18T05:55:49.908Z,6.20
2022-08-18T05:56:49.912Z,5.90
2022-08-18T05:57:50.086Z,6.50
2022-08-18T05:58:49.882Z,5.90
2022-08-18T05:59:49.881Z,5.90
2022-08-18T06:00:49.847Z,6.00
2022-08-18T06:01:49.846Z,6.30
2022-08-18T06:02:49.899Z,5.70
2022-08-18T06:03:49.812Z,5.60
2022-08-18T06:04:49.818Z,5.70
2022-08-18T06:05:49.780Z,5.90
2022-08-18T06:06:49.828Z,6.00
2022-08-18T06:07:49.922Z,5.90
2022-08-18T06:08:49.747Z,6.00
2022-08-18T06:09:49.764Z,6.10
2022-08-18T06:10:49.725Z,5.70
2022-08-18T06:11:49.696Z,5.80
2022-08-18T06:12:49.726Z,6.20
2022-08-18T06:13:49.702Z,6.00
2022-08-18T06:14:49.702Z,5.90
2022-08-18T06:15:49.645Z,6.10
2022-08-18T06:16:49.633Z,5.80
2022-08-18T06:17:49.697Z,5.50
2022-08-18T06:18:49.640Z,6.10
2022-08-18T06:19:49.586Z,5.60
2022-08-18T06:20:49.596Z,6.00
2022-08-18T06:21:49.568Z,6.20
2022-08-18T06:22:53.498Z,5.80
2022-08-18T06:23:49.549Z,5.60
2022-08-18T06:24:49.545Z,5.90
2022-08-18T06:25:49.508Z,5.90
2022-08-18T06:26:49.533Z,6.00
2022-08-18T06:27:49.510Z,5.90
2022-08-18T06:28:49.580Z,5.50
2022-08-18T06:29:49.466Z,5.50
2022-08-18T06:30:49.440Z,5.80
2022-08-18T06:31:49.514Z,5.90
2022-08-18T06:32:49.427Z,5.80
2022-08-18T06:33:49.409Z,6.00
2022-08-18T06:34:49.421Z,6.50
2022-08-18T06:35:49.380Z,5.70
2022-08-18T06:36:49.382Z,5.80
2022-08-18T06:37:49.352Z,6.50
2022-08-18T06:38:49.347Z,6.00
2022-08-18T06:39:49.436Z,6.30
2022-08-18T06:40:49.299Z,6.40
2022-08-18T06:41:49.284Z,5.80
2022-08-18T06:42:49.283Z,6.00
2022-08-18T06:43:49.271Z,7.30
2022-08-18T06:44:49.282Z,6.40
2022-08-18T06:45:49.249Z,6.60
2022-08-18T06:46:49.257Z,6.20
2022-08-18T06:47:49.236Z,6.40
2022-08-18T06:48:49.219Z,6.80
2022-08-18T06:49:49.210Z,6.60
2022-08-18T06:50:49.177Z,6.70
2022-08-18T06:51:49.182Z,7.00
2022-08-18T06:52:49.165Z,7.00
2022-08-18T06:53:49.126Z,7.30
2022-08-18T06:54:49.455Z,6.80
2022-08-18T06:55:49.120Z,7.10
2022-08-18T06:56:49.133Z,6.80
2022-08-18T06:57:49.104Z,7.20
2022-08-18T06:58:53.066Z,6.40
2022-08-18T06:59:49.084Z,6.40
2022-08-18T07:00:49.256Z,5.60
2022-08-18T07:01:49.021Z,6.00
2022-08-18T07:02:49.071Z,6.80
2022-08-18T07:03:49.020Z,6.10
2022-08-18T07:04:48.999Z,5.80
2022-08-18T07:05:48.995Z,6.30
2022-08-18T07:06:48.988Z,6.30
2022-08-18T07:07:48.958Z,5.90
2022-08-18T07:08:48.934Z,5.80
2022-08-18T07:09:48.937Z,6.50
2022-08-18T07:10:48.907Z,5.90
2022-08-18T07:11:48.902Z,5.60
2022-08-18T07:12:48.918Z,5.80
2022-08-18T07:13:58.575Z,5.80
2022-08-18T07:14:48.899Z,6.20
2022-08-18T07:15:49.648Z,5.90
2022-08-18T07:16:58.909Z,6.00
2022-08-18T07:17:48.837Z,6.50
2022-08-18T07:18:49.201Z,6.70
2022-08-18T07:19:48.802Z,6.20
2022-08-18T07:20:48.790Z,6.30
2022-08-18T07:21:48.778Z,6.10
2022-08-18T07:22:48.750Z,6.20
2022-08-18T07:24:07.653Z,6.00
2022-08-18T07:24:48.725Z,6.30
2022-08-18T07:25:48.704Z,6.20
2022-08-18T07:26:48.762Z,6.20
2022-08-18T07:27:48.720Z,5.90
2022-08-18T07:28:48.713Z,5.90
2022-08-18T07:29:48.651Z,6.00
2022-08-18T07:31:13.671Z,6.00
2022-08-18T07:31:48.636Z,5.70
2022-08-18T07:32:48.653Z,5.60
2022-08-18T07:33:48.598Z,6.30
2022-08-18T07:34:48.620Z,5.50
2022-08-18T07:35:48.596Z,5.60
2022-08-18T07:36:48.580Z,5.50
2022-08-18T07:37:48.615Z,5.50
2022-08-18T07:38:48.531Z,5.60
2022-08-18T07:39:48.727Z,5.50
2022-08-18T07:40:48.524Z,5.40
2022-08-18T07:41:48.524Z,5.30
2022-08-18T07:43:00.669Z,5.40
2022-08-18T07:43:48.479Z,5.40
2022-08-18T07:44:48.440Z,5.60
2022-08-18T07:45:48.435Z,5.40
2022-08-18T07:46:48.456Z,5.40
2022-08-18T07:47:48.520Z,5.70
2022-08-18T07:48:48.399Z,5.80
2022-08-18T07:50:16.493Z,5.40
2022-08-18T07:50:58.323Z,5.50
2022-08-18T07:51:53.349Z,5.50
2022-08-18T07:52:48.366Z,5.80
2022-08-18T07:53:54.411Z,5.60
2022-08-18T07:54:50.262Z,5.40
2022-08-18T07:55:48.318Z,5.20
2022-08-18T07:56:48.325Z,5.90
2022-08-18T07:57:48.281Z,5.70
2022-08-18T07:58:48.287Z,6.00
2022-08-18T07:59:48.248Z,5.70
2022-08-18T08:00:58.698Z,6.10
2022-08-18T08:01:48.313Z,6.20
2022-08-18T08:02:54.015Z,6.00
2022-08-18T08:03:48.211Z,5.80
2022-08-18T08:04:48.198Z,6.00
2022-08-18T08:05:48.194Z,5.80
2022-08-18T08:07:13.024Z,5.70
2022-08-18T08:07:48.202Z,6.10
2022-08-18T08:08:48.166Z,6.00
2022-08-18T08:09:51.755Z,5.80
2022-08-18T08:10:48.229Z,5.70
2022-08-18T08:11:48.134Z,5.80
2022-08-18T08:12:48.103Z,6.10
2022-08-18T08:13:56.618Z,6.20
2022-08-18T08:14:48.073Z,6.40
2022-08-18T08:15:48.048Z,6.00
2022-08-18T08:16:48.037Z,6.20
2022-08-18T08:17:48.066Z,6.40
2022-08-18T08:18:48.044Z,6.10
2022-08-18T08:20:03.198Z,5.80
2022-08-18T08:20:47.980Z,5.80
2022-08-18T08:21:52.631Z,5.90
2022-08-18T08:22:47.967Z,6.60
2022-08-18T08:23:47.976Z,5.80
2022-08-18T08:24:47.960Z,5.50
2022-08-18T08:25:48.009Z,6.10
2022-08-18T08:26:47.887Z,5.80
2022-08-18T08:27:47.945Z,6.70
2022-08-18T08:28:51.318Z,5.90
2022-08-18T08:29:47.892Z,6.40
2022-08-18T08:30:47.830Z,6.20
2022-08-18T08:31:47.823Z,6.00
2022-08-18T08:32:47.836Z,5.90
2022-08-18T08:33:47.807Z,5.70
2022-08-18T08:34:47.815Z,5.80
2022-08-18T08:35:50.353Z,5.80
2022-08-18T08:36:47.758Z,6.30
2022-08-18T08:37:47.836Z,6.40
2022-08-18T08:38:47.755Z,6.20
2022-08-18T08:39:47.799Z,6.30
2022-08-18T08:40:47.724Z,6.40
2022-08-18T08:41:47.692Z,6.40
2022-08-18T08:42:47.684Z,6.30
2022-08-18T08:43:47.699Z,6.20
2022-08-18T08:44:58.796Z,6.50
2022-08-18T08:45:47.662Z,5.90
2022-08-18T08:46:47.636Z,8.20
2022-08-18T08:47:47.696Z,8.50
2022-08-18T08:48:47.603Z,8.10
2022-08-18T08:49:47.587Z,7.70
2022-08-18T08:50:47.586Z,7.80
2022-08-18T08:51:47.595Z,7.70
2022-08-18T08:52:47.572Z,7.30
2022-08-18T08:53:47.582Z,7.70
2022-08-18T08:54:47.569Z,7.80
2022-08-18T08:55:47.520Z,7.80
2022-08-18T08:56:47.510Z,7.50
2022-08-18T08:57:47.585Z,7.90
2022-08-18T08:58:47.465Z,8.00
2022-08-18T08:59:47.459Z,8.20
2022-08-18T09:00:47.456Z,8.30
2022-08-18T09:01:47.533Z,8.70
2022-08-18T09:02:48.697Z,8.70
2022-08-18T09:03:47.412Z,8.50
2022-08-18T09:04:53.354Z,9.20
2022-08-18T09:05:47.424Z,9.50
2022-08-18T09:06:47.374Z,9.10
2022-08-18T09:07:47.377Z,9.40
2022-08-18T09:08:47.338Z,8.80
2022-08-18T09:09:47.329Z,9.10
2022-08-18T09:10:47.330Z,8.80
2022-08-18T09:11:47.305Z,9.60
2022-08-18T09:12:47.296Z,10.10
2022-08-18T09:13:47.272Z,8.90
2022-08-18T09:14:47.298Z,9.10
2022-08-18T09:15:47.254Z,9.30
2022-08-18T09:16:48.031Z,8.90
2022-08-18T09:17:47.251Z,10.10
2022-08-18T09:18:47.188Z,9.50
2022-08-18T09:19:47.195Z,9.30
2022-08-18T09:20:49.346Z,9.50
2022-08-18T09:21:47.697Z,9.40
2022-08-18T09:22:47.142Z,9.60
2022-08-18T09:23:47.151Z,9.50
2022-08-18T09:24:47.155Z,8.50
2022-08-18T09:25:47.200Z,8.70
2022-08-18T09:26:47.105Z,9.70
2022-08-18T09:28:10.616Z,9.70
2022-08-18T09:28:47.092Z,9.20
2022-08-18T09:29:47.062Z,9.70
2022-08-18T13:04:55.718Z,9.10
2022-08-18T13:05:00.877Z,9.70
2022-08-18T13:06:00.838Z,12.20
2022-08-18T13:07:04.826Z,11.60
2022-08-18T13:08:00.829Z,12.50
2022-08-18T13:09:00.805Z,11.70
2022-08-18T13:10:00.783Z,12.40
2022-08-18T13:11:13.257Z,11.60
2022-08-18T13:12:00.775Z,12.60
2022-08-18T13:13:00.736Z,11.90
2022-08-18T13:14:00.771Z,11.50
2022-08-18T13:15:00.746Z,12.10
2022-08-18T13:16:01.239Z,12.00
2022-08-18T13:17:00.675Z,11.20
2022-08-18T13:18:00.677Z,11.10
2022-08-18T13:19:00.683Z,11.80
2022-08-18T13:20:00.869Z,11.50
2022-08-18T13:21:00.664Z,11.90
2022-08-18T13:22:00.638Z,11.40
2022-08-18T13:23:00.611Z,10.50
2022-08-18T13:24:00.604Z,11.00
2022-08-18T13:25:00.601Z,11.20
2022-08-18T13:26:02.129Z,11.40
2022-08-18T13:27:00.556Z,11.30
2022-08-18T13:28:00.939Z,11.50
2022-08-18T13:29:00.534Z,11.00
2022-08-18T13:30:00.513Z,11.30
2022-08-18T13:31:00.516Z,11.00
2022-08-18T13:32:00.486Z,10.20
2022-08-18T13:33:02.617Z,10.50
2022-08-18T13:34:00.902Z,10.60
2022-08-18T13:35:00.447Z,11.20
2022-08-18T13:36:00.507Z,10.60
2022-08-18T13:37:00.428Z,9.80
2022-08-18T13:38:00.425Z,9.20
2022-08-18T13:39:00.404Z,10.00
2022-08-18T13:40:00.421Z,10.00
2022-08-18T13:41:00.434Z,9.30
2022-08-18T13:42:00.696Z,8.90
2022-08-18T13:43:00.445Z,9.70
2022-08-18T13:44:00.357Z,9.30
2022-08-18T13:45:23.055Z,9.30
2022-08-18T13:46:00.308Z,8.90
2022-08-18T13:47:00.280Z,8.70
2022-08-18T13:48:00.332Z,8.50
2022-08-18T13:49:00.306Z,9.10
2022-08-18T13:50:00.302Z,8.80
2022-08-18T13:51:01.101Z,8.70
2022-08-18T13:52:00.952Z,9.00
2022-08-18T13:53:00.371Z,8.30
2022-08-18T13:54:26.617Z,8.90
2022-08-18T13:55:00.387Z,8.30
2022-08-18T13:56:00.166Z,8.60
2022-08-18T13:57:00.161Z,8.20
2022-08-18T13:58:00.670Z,8.90
2022-08-18T13:59:00.137Z,9.10
2022-08-18T14:00:00.149Z,8.50
2022-08-18T14:01:16.273Z,8.90
2022-08-18T14:02:00.222Z,8.60
2022-08-18T14:03:00.144Z,8.10
2022-08-18T14:04:00.064Z,8.50
2022-08-18T14:05:00.101Z,8.90
2022-08-18T14:06:01.461Z,9.30
2022-08-18T14:07:02.150Z,9.40
2022-08-18T14:08:00.025Z,8.90
2022-08-18T14:09:00.015Z,8.20
2022-08-18T14:10:04.296Z,7.80
2022-08-18T14:10:59.996Z,7.70
2022-08-18T14:12:00.011Z,8.20
2022-08-18T14:12:59.992Z,8.30
2022-08-18T14:13:59.963Z,8.70
2022-08-18T14:14:59.962Z,8.60
2022-08-18T14:15:59.901Z,8.50
2022-08-18T14:16:59.900Z,7.90
2022-08-18T14:17:59.937Z,8.40
2022-08-18T14:18:59.906Z,8.00
2022-08-18T14:19:59.871Z,8.30
2022-08-18T14:20:59.971Z,8.30
2022-08-18T14:21:59.880Z,7.90
2022-08-18T14:22:59.831Z,7.70
2022-08-18T14:23:59.802Z,7.80
2022-08-18T14:25:00.382Z,7.60
2022-08-18T14:26:00.100Z,7.10
2022-08-18T14:26:59.778Z,7.10
2022-08-18T14:28:04.099Z,6.90
2022-08-18T14:28:59.753Z,7.00
2022-08-18T14:29:59.734Z,6.60
2022-08-18T14:30:59.755Z,7.20
2022-08-18T14:31:59.704Z,6.90
2022-08-18T14:32:59.969Z,6.70
2022-08-18T14:34:03.945Z,7.20
2022-08-18T14:35:00.711Z,8.00
2022-08-18T14:36:05.777Z,7.70
2022-08-18T14:36:59.667Z,7.50
2022-08-18T14:37:59.615Z,7.50
2022-08-18T14:38:59.605Z,6.90
2022-08-18T14:39:59.666Z,6.70
2022-08-18T14:40:59.619Z,6.60
2022-08-18T14:41:59.586Z,6.60
2022-08-18T14:42:59.555Z,6.70
2022-08-18T14:44:12.723Z,6.40
2022-08-18T14:45:17.125Z,6.60
2022-08-18T14:45:59.550Z,6.30
2022-08-18T14:46:59.484Z,6.60
2022-08-18T14:47:59.473Z,6.30
2022-08-18T14:48:59.490Z,6.10
2022-08-18T14:49:59.469Z,6.00
2022-08-18T14:50:59.443Z,5.70
2022-08-18T14:51:59.436Z,6.20
2022-08-18T14:52:59.404Z,6.10
2022-08-18T14:53:59.375Z,6.20
2022-08-18T14:54:59.442Z,6.00
2022-08-18T14:55:59.385Z,6.40
2022-08-18T14:56:59.356Z,6.00
2022-08-18T14:57:59.723Z,6.60
2022-08-18T14:58:59.320Z,5.90
2022-08-18T14:59:59.390Z,6.20
2022-08-18T15:00:59.409Z,6.00
2022-08-18T15:01:59.321Z,5.60
2022-08-18T15:02:59.829Z,6.00
2022-08-18T15:03:59.285Z,6.00
2022-08-18T15:04:59.320Z,6.00
2022-08-18T15:05:59.303Z,5.70
2022-08-18T15:06:59.258Z,5.80
2022-08-18T15:07:59.229Z,5.80
2022-08-18T15:08:59.202Z,5.90
2022-08-18T15:10:15.573Z,6.80
2022-08-18T15:10:59.172Z,6.40
2022-08-18T15:11:59.173Z,6.40
2022-08-18T15:12:59.184Z,5.80
2022-08-18T15:13:59.150Z,6.10
2022-08-18T15:14:59.119Z,6.70
2022-08-18T15:16:02.190Z,6.40
2022-08-18T15:16:59.123Z,6.70
2022-08-18T15:17:59.098Z,6.40
2022-08-18T15:18:59.073Z,6.40
2022-08-18T15:20:01.222Z,6.60
2022-08-18T15:20:59.050Z,6.50
2022-08-18T15:21:59.019Z,6.30
2022-08-18T15:22:59.051Z,6.70
2022-08-18T15:23:58.990Z,6.40
2022-08-18T15:24:58.998Z,6.70
2022-08-18T15:25:59.198Z,6.20
2022-08-18T15:27:06.044Z,6.40
2022-08-18T15:27:58.962Z,6.80
2022-08-18T15:29:00.187Z,6.80
2022-08-18T15:29:58.910Z,6.30
2022-08-18T15:32:05.566Z,6.50
2022-08-18T15:33:03.307Z,6.70
2022-08-18T15:33:58.882Z,6.50
2022-08-18T15:34:58.867Z,6.70
2022-08-18T15:35:58.842Z,6.40
2022-08-18T15:37:06.022Z,6.10
2022-08-18T15:37:58.810Z,6.40
2022-08-18T15:38:58.840Z,6.70
2022-08-18T15:39:58.836Z,6.50
2022-08-18T15:40:58.830Z,6.50
2022-08-18T15:41:58.772Z,6.20
2022-08-18T15:42:58.756Z,6.40
2022-08-18T15:43:58.792Z,6.40
2022-08-18T15:44:58.721Z,6.20
2022-08-18T15:45:58.788Z,5.80
2022-08-18T15:46:58.753Z,6.30
2022-08-18T15:47:58.698Z,6.10
2022-08-18T15:48:58.700Z,6.30
2022-08-18T15:49:58.813Z,6.00
2022-08-18T15:51:11.505Z,6.00
2022-08-18T15:51:58.637Z,6.50
2022-08-18T15:52:58.847Z,5.90
2022-08-18T15:53:58.630Z,5.70
2022-08-18T15:55:02.045Z,5.90
2022-08-18T15:55:58.625Z,6.20
2022-08-18T15:56:58.823Z,6.00
2022-08-18T15:57:58.855Z,5.90
2022-08-18T15:58:58.572Z,6.00
2022-08-18T15:59:58.544Z,6.10
2022-08-18T16:00:58.806Z,5.90
2022-08-18T16:01:58.565Z,5.60
2022-08-18T16:02:58.518Z,5.90
2022-08-18T16:03:58.584Z,6.00
2022-08-18T16:04:59.512Z,5.90
2022-08-18T16:05:58.481Z,5.80
2022-08-18T16:06:58.445Z,5.70
2022-08-18T16:07:58.571Z,6.10
2022-08-18T16:08:58.415Z,5.90
2022-08-18T16:09:58.407Z,5.90
2022-08-18T16:10:58.417Z,5.80
2022-08-18T16:12:00.345Z,6.00
2022-08-18T16:12:58.362Z,5.90
2022-08-18T16:13:58.354Z,5.90
2022-08-18T16:14:58.450Z,5.80
2022-08-18T16:15:58.325Z,6.00
2022-08-18T16:17:00.265Z,6.30
2022-08-18T16:17:58.297Z,6.10
2022-08-18T16:18:58.299Z,6.80
2022-08-18T16:19:58.281Z,6.10
2022-08-18T16:20:58.270Z,6.20
2022-08-18T16:21:58.281Z,6.00
2022-08-18T16:22:58.236Z,6.70
2022-08-18T16:23:58.371Z,6.60
2022-08-18T16:24:58.243Z,6.70
2022-08-18T16:25:58.528Z,6.10
2022-08-18T16:26:58.171Z,6.30
2022-08-18T16:27:58.167Z,6.40
2022-08-18T16:29:00.243Z,6.40
2022-08-18T16:29:58.153Z,6.70
2022-08-18T16:30:58.133Z,6.90
2022-08-18T16:31:58.116Z,7.00
2022-08-18T16:32:58.680Z,7.10
2022-08-18T16:33:58.095Z,7.00
2022-08-18T16:34:58.110Z,6.90
2022-08-18T16:35:58.078Z,7.50
2022-08-18T16:36:58.053Z,7.30
2022-08-18T16:37:58.078Z,6.90
2022-08-18T16:38:58.302Z,7.20
2022-08-18T16:39:58.172Z,7.60
2022-08-18T16:40:58.025Z,6.80
2022-08-18T16:41:57.991Z,7.50
2022-08-18T16:42:58.021Z,6.90
2022-08-18T16:43:57.961Z,6.90
2022-08-18T16:44:57.949Z,7.70
2022-08-18T16:45:57.962Z,6.60
2022-08-18T16:46:57.931Z,7.10
2022-08-18T16:47:57.910Z,6.80
2022-08-18T16:48:57.937Z,6.60
2022-08-18T16:49:58.717Z,6.70
2022-08-18T16:50:57.930Z,6.60
2022-08-18T16:51:57.858Z,6.60